sensor_id;sensor_type;location;lat;lon;timestamp;temperature;humidity
463;DHT22;218;51.902;9.542;2022-09-09T00:01:30;18.40;1.00
463;DHT22;218;51.902;9.542;2022-09-09T00:04:09;18.40;1.00
463;DHT22;218;51.902;9.542;2022-09-09T00:06:44;18.40;1.00
463;DHT22;218;51.902;9.542;2022-09-09T00:09:14;18.40;1.00
463;DHT22;218;51.902;9.542;2022-09-09T00:11:46;18.40;1.00
463;DHT22;218;51.902;9.542;2022-09-09T00:14:18;18.30;1.00
463;DHT22;218;51.902;9.542;2022-09-09T00:16:52;18.30;1.00
463;DHT22;218;51.902;9.542;2022-09-09T00:19:26;18.30;1.00
463;DHT22;218;51.902;9.542;2022-09-09T00:22:12;18.30;1.00
463;DHT22;218;51.902;9.542;2022-09-09T00:24:43;18.20;1.00
463;DHT22;218;51.902;9.542;2022-09-09T00:27:16;18.20;1.00
463;DHT22;218;51.902;9.542;2022-09-09T00:29:52;18.20;1.00
463;DHT22;218;51.902;9.542;2022-09-09T00:32:29;18.20;1.00
463;DHT22;218;51.902;9.542;2022-09-09T00:35:02;18.20;1.00
463;DHT22;218;51.902;9.542;2022-09-09T00:37:31;18.20;1.00
463;DHT22;218;51.902;9.542;2022-09-09T00:40:00;18.20;1.00
463;DHT22;218;51.902;9.542;2022-09-09T00:42:39;18.10;1.00
463;DHT22;218;51.902;9.542;2022-09-09T00:45:19;18.10;1.00
463;DHT22;218;51.902;9.542;2022-09-09T00:47:49;18.10;1.00
463;DHT22;218;51.902;9.542;2022-09-09T00:50:35;18.10;1.00
463;DHT22;218;51.902;9.542;2022-09-09T00:53:22;18.10;1.00
463;DHT22;218;51.902;9.542;2022-09-09T00:56:01;18.10;1.00
463;DHT22;218;51.902;9.542;2022-09-09T00:58:30;18.10;1.00
463;DHT22;218;51.902;9.542;2022-09-09T01:01:02;18.10;1.00
463;DHT22;218;51.902;9.542;2022-09-09T01:03:35;18.10;1.00
463;DHT22;218;51.902;9.542;2022-09-09T01:06:13;18.10;1.00
463;DHT22;218;51.902;9.542;2022-09-09T01:09:07;18.10;1.00
463;DHT22;218;51.902;9.542;2022-09-09T01:11:49;18.10;1.00
463;DHT22;218;51.902;9.542;2022-09-09T01:14:39;18.10;1.00
463;DHT22;218;51.902;9.542;2022-09-09T01:17:19;18.10;1.00
463;DHT22;218;51.902;9.542;2022-09-09T01:20:02;18.10;1.00
463;DHT22;218;51.902;9.542;2022-09-09T01:22:36;18.10;1.00
463;DHT22;218;51.902;9.542;2022-09-09T01:25:22;18.10;1.00
463;DHT22;218;51.902;9.542;2022-09-09T01:27:55;18.10;1.00
463;DHT22;218;51.902;9.542;2022-09-09T01:30:23;18.10;1.00
463;DHT22;218;51.902;9.542;2022-09-09T01:32:53;18.10;1.00
463;DHT22;218;51.902;9.542;2022-09-09T01:35:31;18.00;1.00
463;DHT22;218;51.902;9.542;2022-09-09T01:37:59;18.00;1.00
463;DHT22;218;51.902;9.542;2022-09-09T01:40:27;18.00;1.00
463;DHT22;218;51.902;9.542;2022-09-09T01:42:55;18.00;1.00
463;DHT22;218;51.902;9.542;2022-09-09T01:45:24;18.10;1.00
463;DHT22;218;51.902;9.542;2022-09-09T01:47:52;18.00;1.00
463;DHT22;218;51.902;9.542;2022-09-09T01:50:20;18.00;1.00
463;DHT22;218;51.902;9.542;2022-09-09T01:52:51;18.00;1.00
463;DHT22;218;51.902;9.542;2022-09-09T01:55:26;18.00;1.00
463;DHT22;218;51.902;9.542;2022-09-09T01:58:15;18.00;1.00
463;DHT22;218;51.902;9.542;2022-09-09T02:00:51;18.00;1.00
463;DHT22;218;51.902;9.542;2022-09-09T02:03:23;18.00;1.00
463;DHT22;218;51.902;9.542;2022-09-09T02:05:59;18.10;1.00
463;DHT22;218;51.902;9.542;2022-09-09T02:08:42;18.10;1.00
463;DHT22;218;51.902;9.542;2022-09-09T02:11:13;18.10;1.00
463;DHT22;218;51.902;9.542;2022-09-09T02:13:43;18.10;1.00
463;DHT22;218;51.902;9.542;2022-09-09T02:16:13;18.20;1.00
463;DHT22;218;51.902;9.542;2022-09-09T02:18:47;18.20;1.00
463;DHT22;218;51.902;9.542;2022-09-09T02:21:17;18.20;1.00
463;DHT22;218;51.902;9.542;2022-09-09T02:23:47;18.20;1.00
463;DHT22;218;51.902;9.542;2022-09-09T02:26:19;18.20;1.00
463;DHT22;218;51.902;9.542;2022-09-09T02:28:50;18.20;1.00
463;DHT22;218;51.902;9.542;2022-09-09T02:31:20;18.20;1.00
463;DHT22;218;51.902;9.542;2022-09-09T02:33:51;18.20;1.00
463;DHT22;218;51.902;9.542;2022-09-09T02:36:20;18.20;1.00
463;DHT22;218;51.902;9.542;2022-09-09T02:38:49;18.20;1.00
463;DHT22;218;51.902;9.542;2022-09-09T02:41:20;18.20;1.00
463;DHT22;218;51.902;9.542;2022-09-09T02:44:11;18.20;1.00
463;DHT22;218;51.902;9.542;2022-09-09T02:47:09;18.10;1.00
463;DHT22;218;51.902;9.542;2022-09-09T02:49:47;18.10;1.00
463;DHT22;218;51.902;9.542;2022-09-09T02:52:20;18.10;1.00
463;DHT22;218;51.902;9.542;2022-09-09T02:54:57;18.10;1.00
463;DHT22;218;51.902;9.542;2022-09-09T02:57:28;18.10;1.00
463;DHT22;218;51.902;9.542;2022-09-09T02:59:59;18.10;1.00
463;DHT22;218;51.902;9.542;2022-09-09T03:02:26;18.10;1.00
463;DHT22;218;51.902;9.542;2022-09-09T03:04:53;18.10;1.00
463;DHT22;218;51.902;9.542;2022-09-09T03:07:20;18.10;1.00
463;DHT22;218;51.902;9.542;2022-09-09T03:09:47;18.10;1.00
463;DHT22;218;51.902;9.542;2022-09-09T03:12:15;18.20;1.00
463;DHT22;218;51.902;9.542;2022-09-09T03:14:42;18.20;1.00
463;DHT22;218;51.902;9.542;2022-09-09T03:17:12;18.20;1.00
463;DHT22;218;51.902;9.542;2022-09-09T03:19:39;18.20;1.00
463;DHT22;218;51.902;9.542;2022-09-09T03:22:07;18.20;1.00
463;DHT22;218;51.902;9.542;2022-09-09T03:24:35;18.30;1.00
463;DHT22;218;51.902;9.542;2022-09-09T03:27:02;18.30;1.00
463;DHT22;218;51.902;9.542;2022-09-09T03:29:29;18.30;1.00
463;DHT22;218;51.902;9.542;2022-09-09T03:31:56;18.30;1.00
463;DHT22;218;51.902;9.542;2022-09-09T03:34:25;18.30;1.00
463;DHT22;218;51.902;9.542;2022-09-09T03:36:52;18.40;1.00
463;DHT22;218;51.902;9.542;2022-09-09T03:39:18;18.40;1.00
463;DHT22;218;51.902;9.542;2022-09-09T03:41:45;18.40;1.00
463;DHT22;218;51.902;9.542;2022-09-09T03:44:14;18.40;1.00
463;DHT22;218;51.902;9.542;2022-09-09T03:46:41;18.40;1.00
463;DHT22;218;51.902;9.542;2022-09-09T03:49:08;18.50;1.00
463;DHT22;218;51.902;9.542;2022-09-09T03:51:42;18.50;1.00
463;DHT22;218;51.902;9.542;2022-09-09T03:54:18;18.50;1.00
463;DHT22;218;51.902;9.542;2022-09-09T03:56:45;18.50;1.00
463;DHT22;218;51.902;9.542;2022-09-09T03:59:12;18.50;1.00
463;DHT22;218;51.902;9.542;2022-09-09T04:01:39;18.50;1.00
463;DHT22;218;51.902;9.542;2022-09-09T04:04:06;18.60;1.00
463;DHT22;218;51.902;9.542;2022-09-09T04:06:34;18.60;1.00
463;DHT22;218;51.902;9.542;2022-09-09T04:09:03;18.60;1.00
463;DHT22;218;51.902;9.542;2022-09-09T04:11:30;18.60;1.00
463;DHT22;218;51.902;9.542;2022-09-09T04:13:57;18.70;1.00
463;DHT22;218;51.902;9.542;2022-09-09T04:16:24;18.60;1.00
463;DHT22;218;51.902;9.542;2022-09-09T04:18:51;18.70;1.00
463;DHT22;218;51.902;9.542;2022-09-09T04:21:18;18.70;1.00
463;DHT22;218;51.902;9.542;2022-09-09T04:23:45;18.70;1.00
463;DHT22;218;51.902;9.542;2022-09-09T04:26:14;18.80;1.00
463;DHT22;218;51.902;9.542;2022-09-09T04:28:41;18.80;1.00
463;DHT22;218;51.902;9.542;2022-09-09T04:31:09;18.80;1.00
463;DHT22;218;51.902;9.542;2022-09-09T04:33:37;18.80;1.00
463;DHT22;218;51.902;9.542;2022-09-09T04:36:05;18.90;1.00
463;DHT22;218;51.902;9.542;2022-09-09T04:38:33;18.90;1.00
463;DHT22;218;51.902;9.542;2022-09-09T04:41:00;18.90;1.00
463;DHT22;218;51.902;9.542;2022-09-09T04:43:28;19.00;1.00
463;DHT22;218;51.902;9.542;2022-09-09T04:45:56;19.00;1.00
463;DHT22;218;51.902;9.542;2022-09-09T04:48:24;19.00;1.00
463;DHT22;218;51.902;9.542;2022-09-09T04:50:56;19.00;1.00
463;DHT22;218;51.902;9.542;2022-09-09T04:53:24;19.00;1.00
463;DHT22;218;51.902;9.542;2022-09-09T04:55:52;19.00;1.00
463;DHT22;218;51.902;9.542;2022-09-09T04:58:19;19.00;1.00
463;DHT22;218;51.902;9.542;2022-09-09T05:00:49;19.00;1.00
463;DHT22;218;51.902;9.542;2022-09-09T05:03:17;19.00;1.00
463;DHT22;218;51.902;9.542;2022-09-09T05:05:44;19.00;1.00
463;DHT22;218;51.902;9.542;2022-09-09T05:08:11;19.10;1.00
463;DHT22;218;51.902;9.542;2022-09-09T05:10:39;19.10;1.00
463;DHT22;218;51.902;9.542;2022-09-09T05:13:07;19.10;1.00
463;DHT22;218;51.902;9.542;2022-09-09T05:15:34;19.10;1.00
463;DHT22;218;51.902;9.542;2022-09-09T05:18:03;19.10;1.00
463;DHT22;218;51.902;9.542;2022-09-09T05:20:30;19.10;1.00
463;DHT22;218;51.902;9.542;2022-09-09T05:22:57;19.10;1.00
463;DHT22;218;51.902;9.542;2022-09-09T05:25:25;19.10;1.00
463;DHT22;218;51.902;9.542;2022-09-09T05:27:52;19.20;1.00
463;DHT22;218;51.902;9.542;2022-09-09T05:30:20;19.20;1.00
463;DHT22;218;51.902;9.542;2022-09-09T05:32:48;19.30;1.00
463;DHT22;218;51.902;9.542;2022-09-09T05:35:17;19.30;1.00
463;DHT22;218;51.902;9.542;2022-09-09T05:37:45;19.30;1.00
463;DHT22;218;51.902;9.542;2022-09-09T05:40:12;19.30;1.00
463;DHT22;218;51.902;9.542;2022-09-09T05:42:39;19.30;1.00
463;DHT22;218;51.902;9.542;2022-09-09T05:45:25;19.40;1.00
463;DHT22;218;51.902;9.542;2022-09-09T05:47:52;19.40;1.00
463;DHT22;218;51.902;9.542;2022-09-09T05:50:21;19.40;1.00
463;DHT22;218;51.902;9.542;2022-09-09T05:52:48;19.50;1.00
463;DHT22;218;51.902;9.542;2022-09-09T05:55:15;19.50;1.00
463;DHT22;218;51.902;9.542;2022-09-09T05:57:48;19.50;1.00
463;DHT22;218;51.902;9.542;2022-09-09T06:00:17;19.60;1.00
463;DHT22;218;51.902;9.542;2022-09-09T06:02:50;19.60;1.00
463;DHT22;218;51.902;9.542;2022-09-09T06:05:18;19.60;1.00
463;DHT22;218;51.902;9.542;2022-09-09T06:07:46;19.70;1.00
463;DHT22;218;51.902;9.542;2022-09-09T06:10:13;19.60;1.00
463;DHT22;218;51.902;9.542;2022-09-09T06:12:40;19.60;1.00
463;DHT22;218;51.902;9.542;2022-09-09T06:15:08;19.70;1.00
463;DHT22;218;51.902;9.542;2022-09-09T06:17:35;19.70;1.00
463;DHT22;218;51.902;9.542;2022-09-09T06:20:02;19.70;1.00
463;DHT22;218;51.902;9.542;2022-09-09T06:22:30;19.70;1.00
463;DHT22;218;51.902;9.542;2022-09-09T06:24:58;19.70;1.00
463;DHT22;218;51.902;9.542;2022-09-09T06:27:27;19.70;1.00
463;DHT22;218;51.902;9.542;2022-09-09T06:29:54;19.80;1.00
463;DHT22;218;51.902;9.542;2022-09-09T06:32:23;19.80;1.00
463;DHT22;218;51.902;9.542;2022-09-09T06:35:03;19.80;1.00
463;DHT22;218;51.902;9.542;2022-09-09T06:37:30;19.90;1.00
463;DHT22;218;51.902;9.542;2022-09-09T06:39:59;19.90;1.00
463;DHT22;218;51.902;9.542;2022-09-09T06:42:26;19.90;1.00
463;DHT22;218;51.902;9.542;2022-09-09T06:44:53;19.90;1.00
463;DHT22;218;51.902;9.542;2022-09-09T06:47:19;20.00;1.00
463;DHT22;218;51.902;9.542;2022-09-09T06:49:46;20.00;1.00
463;DHT22;218;51.902;9.542;2022-09-09T06:52:13;20.00;1.00
463;DHT22;218;51.902;9.542;2022-09-09T06:54:40;20.00;1.00
463;DHT22;218;51.902;9.542;2022-09-09T06:57:08;20.00;1.00
463;DHT22;218;51.902;9.542;2022-09-09T06:59:35;20.00;1.00
463;DHT22;218;51.902;9.542;2022-09-09T07:02:02;20.10;1.00
463;DHT22;218;51.902;9.542;2022-09-09T07:04:29;20.10;1.00
463;DHT22;218;51.902;9.542;2022-09-09T07:06:56;20.10;1.00
463;DHT22;218;51.902;9.542;2022-09-09T07:09:24;20.10;1.00
463;DHT22;218;51.902;9.542;2022-09-09T07:11:52;20.10;1.00
463;DHT22;218;51.902;9.542;2022-09-09T07:14:21;20.20;1.00
463;DHT22;218;51.902;9.542;2022-09-09T07:16:48;20.20;1.00
463;DHT22;218;51.902;9.542;2022-09-09T07:19:15;20.30;1.00
463;DHT22;218;51.902;9.542;2022-09-09T07:21:42;20.30;1.00
463;DHT22;218;51.902;9.542;2022-09-09T07:24:10;20.40;1.00
463;DHT22;218;51.902;9.542;2022-09-09T07:26:38;20.40;1.00
463;DHT22;218;51.902;9.542;2022-09-09T07:29:05;20.40;1.00
463;DHT22;218;51.902;9.542;2022-09-09T07:31:35;20.50;1.00
463;DHT22;218;51.902;9.542;2022-09-09T07:34:03;20.50;1.00
463;DHT22;218;51.902;9.542;2022-09-09T07:36:32;20.60;1.00
463;DHT22;218;51.902;9.542;2022-09-09T07:39:00;20.70;1.00
463;DHT22;218;51.902;9.542;2022-09-09T07:51:49;21.00;1.00
463;DHT22;218;51.902;9.542;2022-09-09T07:54:23;21.10;1.00
463;DHT22;218;51.902;9.542;2022-09-09T07:56:54;21.20;1.00
463;DHT22;218;51.902;9.542;2022-09-09T07:59:21;21.30;1.00
463;DHT22;218;51.902;9.542;2022-09-09T08:01:51;21.40;1.00
463;DHT22;218;51.902;9.542;2022-09-09T08:04:21;21.50;1.00
463;DHT22;218;51.902;9.542;2022-09-09T08:06:51;21.60;1.00
463;DHT22;218;51.902;9.542;2022-09-09T08:09:19;21.70;1.00
463;DHT22;218;51.902;9.542;2022-09-09T08:11:46;21.80;1.00
463;DHT22;218;51.902;9.542;2022-09-09T08:14:14;21.90;1.00
463;DHT22;218;51.902;9.542;2022-09-09T08:16:48;22.00;1.00
463;DHT22;218;51.902;9.542;2022-09-09T08:19:18;22.10;1.00
463;DHT22;218;51.902;9.542;2022-09-09T08:21:46;22.20;1.00
463;DHT22;218;51.902;9.542;2022-09-09T08:24:16;22.30;1.00
463;DHT22;218;51.902;9.542;2022-09-09T08:26:46;22.30;1.00
463;DHT22;218;51.902;9.542;2022-09-09T08:29:14;22.40;1.00
463;DHT22;218;51.902;9.542;2022-09-09T08:31:43;22.50;1.00
463;DHT22;218;51.902;9.542;2022-09-09T08:34:10;22.60;1.00
463;DHT22;218;51.902;9.542;2022-09-09T08:36:39;22.70;1.00
463;DHT22;218;51.902;9.542;2022-09-09T08:39:09;22.80;1.00
463;DHT22;218;51.902;9.542;2022-09-09T08:41:59;22.90;1.00
463;DHT22;218;51.902;9.542;2022-09-09T08:44:41;23.00;1.00
463;DHT22;218;51.902;9.542;2022-09-09T08:47:18;23.20;1.00
463;DHT22;218;51.902;9.542;2022-09-09T08:50:03;23.30;1.00
463;DHT22;218;51.902;9.542;2022-09-09T08:52:37;23.50;1.00
463;DHT22;218;51.902;9.542;2022-09-09T08:55:16;23.60;1.00
463;DHT22;218;51.902;9.542;2022-09-09T08:57:49;23.70;1.00
463;DHT22;218;51.902;9.542;2022-09-09T09:00:18;23.80;1.00
463;DHT22;218;51.902;9.542;2022-09-09T09:02:51;23.90;1.00
463;DHT22;218;51.902;9.542;2022-09-09T09:05:25;24.00;1.00
463;DHT22;218;51.902;9.542;2022-09-09T09:08:06;24.00;1.00
463;DHT22;218;51.902;9.542;2022-09-09T09:10:45;24.00;1.00
463;DHT22;218;51.902;9.542;2022-09-09T09:13:18;24.00;1.00
463;DHT22;218;51.902;9.542;2022-09-09T09:15:50;24.10;1.00
463;DHT22;218;51.902;9.542;2022-09-09T09:18:19;24.10;1.00
463;DHT22;218;51.902;9.542;2022-09-09T09:20:52;24.00;1.00
463;DHT22;218;51.902;9.542;2022-09-09T09:23:23;24.00;1.00
463;DHT22;218;51.902;9.542;2022-09-09T09:25:53;24.10;1.00
463;DHT22;218;51.902;9.542;2022-09-09T09:28:26;24.10;1.00
463;DHT22;218;51.902;9.542;2022-09-09T09:30:56;24.10;1.00
463;DHT22;218;51.902;9.542;2022-09-09T09:33:28;24.10;1.00
463;DHT22;218;51.902;9.542;2022-09-09T09:35:58;24.20;1.00
463;DHT22;218;51.902;9.542;2022-09-09T09:38:26;24.20;1.00
463;DHT22;218;51.902;9.542;2022-09-09T09:40:55;24.30;1.00
463;DHT22;218;51.902;9.542;2022-09-09T09:43:28;24.40;1.00
463;DHT22;218;51.902;9.542;2022-09-09T09:45:56;24.40;1.00
463;DHT22;218;51.902;9.542;2022-09-09T09:48:24;24.50;1.00
463;DHT22;218;51.902;9.542;2022-09-09T09:50:53;24.60;1.00
463;DHT22;218;51.902;9.542;2022-09-09T09:53:23;24.70;1.00
463;DHT22;218;51.902;9.542;2022-09-09T09:55:59;24.70;1.00
463;DHT22;218;51.902;9.542;2022-09-09T09:58:31;24.70;1.00
463;DHT22;218;51.902;9.542;2022-09-09T10:01:00;24.80;1.00
463;DHT22;218;51.902;9.542;2022-09-09T10:03:29;24.90;1.00
463;DHT22;218;51.902;9.542;2022-09-09T10:05:56;24.90;1.00
463;DHT22;218;51.902;9.542;2022-09-09T10:08:24;25.10;1.00
463;DHT22;218;51.902;9.542;2022-09-09T10:11:02;25.20;1.00
463;DHT22;218;51.902;9.542;2022-09-09T10:13:40;25.30;1.00
463;DHT22;218;51.902;9.542;2022-09-09T10:16:25;25.40;1.00
463;DHT22;218;51.902;9.542;2022-09-09T10:18:59;25.40;1.00
463;DHT22;218;51.902;9.542;2022-09-09T10:21:56;25.40;1.00
463;DHT22;218;51.902;9.542;2022-09-09T10:27:27;25.30;1.00
463;DHT22;218;51.902;9.542;2022-09-09T10:30:07;25.30;1.00
463;DHT22;218;51.902;9.542;2022-09-09T10:32:39;25.20;1.00
463;DHT22;218;51.902;9.542;2022-09-09T10:35:12;25.20;1.00
463;DHT22;218;51.902;9.542;2022-09-09T10:37:54;25.10;1.00
463;DHT22;218;51.902;9.542;2022-09-09T10:40:32;25.10;1.00
463;DHT22;218;51.902;9.542;2022-09-09T10:43:09;25.10;1.00
463;DHT22;218;51.902;9.542;2022-09-09T10:45:49;25.00;1.00
463;DHT22;218;51.902;9.542;2022-09-09T10:48:30;25.00;1.00
463;DHT22;218;51.902;9.542;2022-09-09T10:51:11;25.00;1.00
463;DHT22;218;51.902;9.542;2022-09-09T10:53:47;24.90;1.00
463;DHT22;218;51.902;9.542;2022-09-09T10:56:17;24.90;1.00
463;DHT22;218;51.902;9.542;2022-09-09T10:58:49;24.70;1.00
463;DHT22;218;51.902;9.542;2022-09-09T11:01:22;24.70;1.00
463;DHT22;218;51.902;9.542;2022-09-09T11:03:55;24.50;1.00
463;DHT22;218;51.902;9.542;2022-09-09T11:06:29;24.50;1.00
463;DHT22;218;51.902;9.542;2022-09-09T11:09:00;24.40;1.00
463;DHT22;218;51.902;9.542;2022-09-09T11:11:31;24.30;1.00
463;DHT22;218;51.902;9.542;2022-09-09T11:14:03;24.30;1.00
463;DHT22;218;51.902;9.542;2022-09-09T11:16:39;24.20;1.00
463;DHT22;218;51.902;9.542;2022-09-09T11:19:13;24.20;1.00
463;DHT22;218;51.902;9.542;2022-09-09T11:21:44;24.20;1.00
463;DHT22;218;51.902;9.542;2022-09-09T11:24:15;24.20;1.00
463;DHT22;218;51.902;9.542;2022-09-09T11:26:47;24.10;1.00
463;DHT22;218;51.902;9.542;2022-09-09T11:29:28;24.10;1.00
463;DHT22;218;51.902;9.542;2022-09-09T11:32:12;24.10;1.00
463;DHT22;218;51.902;9.542;2022-09-09T11:34:51;24.10;1.00
463;DHT22;218;51.902;9.542;2022-09-09T11:38:02;24.10;1.00
463;DHT22;218;51.902;9.542;2022-09-09T11:40:32;24.10;1.00
463;DHT22;218;51.902;9.542;2022-09-09T11:43:05;24.00;1.00
463;DHT22;218;51.902;9.542;2022-09-09T11:45:35;24.00;1.00
463;DHT22;218;51.902;9.542;2022-09-09T11:48:04;24.00;1.00
463;DHT22;218;51.902;9.542;2022-09-09T11:50:36;24.00;1.00
463;DHT22;218;51.902;9.542;2022-09-09T11:53:21;23.90;1.00
463;DHT22;218;51.902;9.542;2022-09-09T11:56:01;23.90;1.00
463;DHT22;218;51.902;9.542;2022-09-09T11:58:41;23.80;1.00
463;DHT22;218;51.902;9.542;2022-09-09T12:01:27;23.80;1.00
463;DHT22;218;51.902;9.542;2022-09-09T12:04:05;23.70;1.00
463;DHT22;218;51.902;9.542;2022-09-09T12:06:43;23.70;1.00
463;DHT22;218;51.902;9.542;2022-09-09T12:09:26;23.60;1.00
463;DHT22;218;51.902;9.542;2022-09-09T12:12:05;23.60;1.00
463;DHT22;218;51.902;9.542;2022-09-09T12:14:36;23.60;1.00
463;DHT22;218;51.902;9.542;2022-09-09T12:17:19;23.70;1.00
463;DHT22;218;51.902;9.542;2022-09-09T12:20:01;23.70;1.00
463;DHT22;218;51.902;9.542;2022-09-09T12:22:37;23.70;1.00
463;DHT22;218;51.902;9.542;2022-09-09T12:25:15;23.70;1.00
463;DHT22;218;51.902;9.542;2022-09-09T12:27:47;23.80;1.00
463;DHT22;218;51.902;9.542;2022-09-09T12:30:16;24.00;1.00
463;DHT22;218;51.902;9.542;2022-09-09T12:32:45;24.20;1.00
463;DHT22;218;51.902;9.542;2022-09-09T12:35:19;24.30;1.00
463;DHT22;218;51.902;9.542;2022-09-09T12:37:50;24.50;1.00
463;DHT22;218;51.902;9.542;2022-09-09T12:40:21;24.60;1.00
463;DHT22;218;51.902;9.542;2022-09-09T12:42:49;24.70;1.00
463;DHT22;218;51.902;9.542;2022-09-09T12:45:18;24.80;1.00
463;DHT22;218;51.902;9.542;2022-09-09T12:47:48;24.90;1.00
463;DHT22;218;51.902;9.542;2022-09-09T12:50:19;25.00;1.00
463;DHT22;218;51.902;9.542;2022-09-09T12:52:48;25.10;1.00
463;DHT22;218;51.902;9.542;2022-09-09T12:55:19;25.20;1.00
463;DHT22;218;51.902;9.542;2022-09-09T12:57:48;25.30;1.00
463;DHT22;218;51.902;9.542;2022-09-09T13:00:18;25.40;1.00
463;DHT22;218;51.902;9.542;2022-09-09T13:02:49;25.50;1.00
463;DHT22;218;51.902;9.542;2022-09-09T13:05:21;25.70;1.00
463;DHT22;218;51.902;9.542;2022-09-09T13:08:09;25.70;1.00
463;DHT22;218;51.902;9.542;2022-09-09T13:10:55;25.70;1.00
463;DHT22;218;51.902;9.542;2022-09-09T13:13:27;25.80;1.00
463;DHT22;218;51.902;9.542;2022-09-09T13:15:57;25.90;1.00
463;DHT22;218;51.902;9.542;2022-09-09T13:18:27;26.00;1.00
463;DHT22;218;51.902;9.542;2022-09-09T13:20:57;26.00;1.00
463;DHT22;218;51.902;9.542;2022-09-09T13:23:27;26.10;1.00
463;DHT22;218;51.902;9.542;2022-09-09T13:25:56;26.30;1.00
463;DHT22;218;51.902;9.542;2022-09-09T13:28:25;26.40;1.00
463;DHT22;218;51.902;9.542;2022-09-09T13:30:59;26.40;1.00
463;DHT22;218;51.902;9.542;2022-09-09T13:33:32;26.50;1.00
463;DHT22;218;51.902;9.542;2022-09-09T13:36:06;26.50;1.00
463;DHT22;218;51.902;9.542;2022-09-09T13:38:37;26.40;1.00
463;DHT22;218;51.902;9.542;2022-09-09T13:41:06;26.40;1.00
463;DHT22;218;51.902;9.542;2022-09-09T13:43:37;26.40;1.00
463;DHT22;218;51.902;9.542;2022-09-09T13:46:21;26.30;1.00
463;DHT22;218;51.902;9.542;2022-09-09T13:48:54;26.30;1.00
463;DHT22;218;51.902;9.542;2022-09-09T13:51:33;26.20;1.00
463;DHT22;218;51.902;9.542;2022-09-09T13:54:00;26.10;1.00
463;DHT22;218;51.902;9.542;2022-09-09T13:56:27;26.10;1.00
463;DHT22;218;51.902;9.542;2022-09-09T13:58:54;26.00;1.00
463;DHT22;218;51.902;9.542;2022-09-09T14:01:22;26.00;1.00
463;DHT22;218;51.902;9.542;2022-09-09T14:03:49;25.90;1.00
463;DHT22;218;51.902;9.542;2022-09-09T14:06:18;25.90;1.00
463;DHT22;218;51.902;9.542;2022-09-09T14:08:49;25.80;1.00
463;DHT22;218;51.902;9.542;2022-09-09T14:11:16;25.80;1.00
463;DHT22;218;51.902;9.542;2022-09-09T14:13:43;25.80;1.00
463;DHT22;218;51.902;9.542;2022-09-09T14:16:10;25.80;1.00
463;DHT22;218;51.902;9.542;2022-09-09T14:18:37;25.80;1.00
463;DHT22;218;51.902;9.542;2022-09-09T14:21:04;25.80;1.00
463;DHT22;218;51.902;9.542;2022-09-09T14:23:31;25.80;1.00
463;DHT22;218;51.902;9.542;2022-09-09T14:26:00;25.80;1.00
463;DHT22;218;51.902;9.542;2022-09-09T14:28:27;25.80;1.00
463;DHT22;218;51.902;9.542;2022-09-09T14:30:55;25.90;1.00
463;DHT22;218;51.902;9.542;2022-09-09T14:33:22;25.90;1.00
463;DHT22;218;51.902;9.542;2022-09-09T14:35:55;26.00;1.00
463;DHT22;218;51.902;9.542;2022-09-09T14:38:22;26.00;1.00
463;DHT22;218;51.902;9.542;2022-09-09T14:40:49;26.10;1.00
463;DHT22;218;51.902;9.542;2022-09-09T14:43:18;26.20;1.00
463;DHT22;218;51.902;9.542;2022-09-09T14:45:45;26.30;1.00
463;DHT22;218;51.902;9.542;2022-09-09T14:48:13;26.30;1.00
463;DHT22;218;51.902;9.542;2022-09-09T14:50:40;26.40;1.00
463;DHT22;218;51.902;9.542;2022-09-09T14:53:08;26.50;1.00
463;DHT22;218;51.902;9.542;2022-09-09T14:55:36;26.50;1.00
463;DHT22;218;51.902;9.542;2022-09-09T14:58:03;26.60;1.00
463;DHT22;218;51.902;9.542;2022-09-09T15:00:32;26.60;1.00
463;DHT22;218;51.902;9.542;2022-09-09T15:02:59;26.70;1.00
463;DHT22;218;51.902;9.542;2022-09-09T15:05:26;26.70;1.00
463;DHT22;218;51.902;9.542;2022-09-09T15:07:53;26.70;1.00
463;DHT22;218;51.902;9.542;2022-09-09T15:10:20;26.80;1.00
463;DHT22;218;51.902;9.542;2022-09-09T15:12:47;26.80;1.00
463;DHT22;218;51.902;9.542;2022-09-09T15:15:15;26.80;1.00
463;DHT22;218;51.902;9.542;2022-09-09T15:17:44;26.90;1.00
463;DHT22;218;51.902;9.542;2022-09-09T15:20:11;26.90;1.00
463;DHT22;218;51.902;9.542;2022-09-09T15:22:38;26.80;1.00
463;DHT22;218;51.902;9.542;2022-09-09T15:25:06;26.90;1.00
463;DHT22;218;51.902;9.542;2022-09-09T15:27:33;26.80;1.00
463;DHT22;218;51.902;9.542;2022-09-09T15:30:00;26.80;1.00
463;DHT22;218;51.902;9.542;2022-09-09T15:32:50;26.80;1.00
463;DHT22;218;51.902;9.542;2022-09-09T15:35:33;26.70;1.00
463;DHT22;218;51.902;9.542;2022-09-09T15:38:02;26.60;1.00
463;DHT22;218;51.902;9.542;2022-09-09T15:40:30;26.60;1.00
463;DHT22;218;51.902;9.542;2022-09-09T15:42:57;26.50;1.00
463;DHT22;218;51.902;9.542;2022-09-09T15:45:24;26.40;1.00
463;DHT22;218;51.902;9.542;2022-09-09T15:47:53;26.40;1.00
463;DHT22;218;51.902;9.542;2022-09-09T15:50:20;26.30;1.00
463;DHT22;218;51.902;9.542;2022-09-09T15:52:47;26.30;1.00
463;DHT22;218;51.902;9.542;2022-09-09T15:55:14;26.20;1.00
463;DHT22;218;51.902;9.542;2022-09-09T15:57:41;26.20;1.00
463;DHT22;218;51.902;9.542;2022-09-09T16:00:09;26.10;1.00
463;DHT22;218;51.902;9.542;2022-09-09T16:02:38;26.10;1.00
463;DHT22;218;51.902;9.542;2022-09-09T16:05:08;26.00;1.00
463;DHT22;218;51.902;9.542;2022-09-09T16:07:35;26.00;1.00
463;DHT22;218;51.902;9.542;2022-09-09T16:10:02;26.00;1.00
463;DHT22;218;51.902;9.542;2022-09-09T16:12:29;26.00;1.00
463;DHT22;218;51.902;9.542;2022-09-09T16:14:56;25.90;1.00
463;DHT22;218;51.902;9.542;2022-09-09T16:17:23;25.80;1.00
463;DHT22;218;51.902;9.542;2022-09-09T16:19:50;25.80;1.00
463;DHT22;218;51.902;9.542;2022-09-09T16:22:19;25.80;1.00
463;DHT22;218;51.902;9.542;2022-09-09T16:24:48;25.70;1.00
463;DHT22;218;51.902;9.542;2022-09-09T16:27:14;25.70;1.00
463;DHT22;218;51.902;9.542;2022-09-09T16:29:41;25.70;1.00
463;DHT22;218;51.902;9.542;2022-09-09T16:32:08;25.60;1.00
463;DHT22;218;51.902;9.542;2022-09-09T16:34:35;25.60;1.00
463;DHT22;218;51.902;9.542;2022-09-09T16:37:03;25.60;1.00
463;DHT22;218;51.902;9.542;2022-09-09T16:39:31;25.60;1.00
463;DHT22;218;51.902;9.542;2022-09-09T16:41:58;25.60;1.00
463;DHT22;218;51.902;9.542;2022-09-09T16:44:25;25.50;1.00
463;DHT22;218;51.902;9.542;2022-09-09T16:46:53;25.50;1.00
463;DHT22;218;51.902;9.542;2022-09-09T16:49:21;25.50;1.00
463;DHT22;218;51.902;9.542;2022-09-09T16:51:49;25.40;1.00
463;DHT22;218;51.902;9.542;2022-09-09T16:54:19;25.40;1.00
463;DHT22;218;51.902;9.542;2022-09-09T16:56:48;25.40;1.00
463;DHT22;218;51.902;9.542;2022-09-09T16:59:18;25.30;1.00
463;DHT22;218;51.902;9.542;2022-09-09T17:01:47;25.30;1.00
463;DHT22;218;51.902;9.542;2022-09-09T17:04:16;25.30;1.00
463;DHT22;218;51.902;9.542;2022-09-09T17:06:47;25.30;1.00
463;DHT22;218;51.902;9.542;2022-09-09T17:09:15;25.20;1.00
463;DHT22;218;51.902;9.542;2022-09-09T17:11:42;25.20;1.00
463;DHT22;218;51.902;9.542;2022-09-09T17:14:15;25.10;1.00
463;DHT22;218;51.902;9.542;2022-09-09T17:16:42;25.10;1.00
463;DHT22;218;51.902;9.542;2022-09-09T17:19:09;25.10;1.00
463;DHT22;218;51.902;9.542;2022-09-09T17:21:37;25.10;1.00
463;DHT22;218;51.902;9.542;2022-09-09T17:24:04;25.00;1.00
463;DHT22;218;51.902;9.542;2022-09-09T17:26:33;25.00;1.00
463;DHT22;218;51.902;9.542;2022-09-09T17:29:01;25.00;1.00
463;DHT22;218;51.902;9.542;2022-09-09T17:31:29;25.00;1.00